Time;durP1;ratioP1;P1;durP2;ratioP2;P2;SDS_P1;SDS_P2;PMS_P1;PMS_P2;Temp;Humidity;BMP_temperature;BMP_pressure;BME280_temperature;BME280_humidity;BME280_pressure;Samples;Min_cycle;Max_cycle;Signal;HPM_P1;HPM_P2
2022/09/04 00:00:12;;;;;;;32.08;16.85;;;;;;;10.07;94.00;100785.83;1711956;83;21128;-62
2022/09/04 00:03:04;;;;;;;34.23;15.70;;;;;;;10.04;94.23;100786.77;1708111;83;21033;-63
2022/09/04 00:05:44;;;;;;;31.95;15.58;;;;;;;9.99;93.76;100786.48;1712599;83;21018;-64
2022/09/04 00:08:53;;;;;;;24.65;15.03;;;;;;;9.93;93.77;100785.30;1712343;83;21164;-63
2022/09/04 00:11:47;;;;;;;30.77;15.72;;;;;;;9.84;93.87;100784.60;1712339;83;21206;-64
2022/09/04 00:14:20;;;;;;;33.05;16.40;;;;;;;9.79;94.60;100791.74;1712488;83;21050;-63
2022/09/04 00:17:04;;;;;;;33.25;16.07;;;;;;;9.75;94.34;100790.08;1712681;83;21076;-64
2022/09/04 00:19:48;;;;;;;30.52;15.20;;;;;;;9.70;94.79;100793.27;1712536;83;21061;-63
2022/09/04 00:22:38;;;;;;;30.15;15.38;;;;;;;9.66;94.83;100799.48;1712373;83;21064;-64
2022/09/04 00:25:19;;;;;;;26.95;14.10;;;;;;;9.61;95.07;100795.65;1712506;83;21050;-62
2022/09/04 00:27:49;;;;;;;33.25;15.05;;;;;;;9.55;95.76;100792.32;1712373;83;21534;-63
2022/09/04 00:30:20;;;;;;;26.33;13.80;;;;;;;9.51;96.44;100793.28;1712381;83;21106;-64
2022/09/04 00:33:20;;;;;;;24.90;13.08;;;;;;;9.48;96.16;100794.64;1712399;83;21072;-64
2022/09/04 00:35:58;;;;;;;26.25;13.32;;;;;;;9.41;96.18;100800.05;1712191;83;21088;-64
2022/09/04 00:38:48;;;;;;;29.20;14.20;;;;;;;9.34;96.75;100799.77;1712228;83;20990;-63
2022/09/04 00:41:35;;;;;;;26.60;14.83;;;;;;;9.31;97.31;100797.19;1712143;83;21041;-63
2022/09/04 00:44:13;;;;;;;29.42;14.63;;;;;;;9.27;97.53;100799.48;1647091;83;21550;-64
2022/09/04 00:47:20;;;;;;;28.77;14.20;;;;;;;9.22;97.60;100802.63;1712348;83;21060;-65
2022/09/04 00:50:14;;;;;;;26.75;12.53;;;;;;;9.15;97.74;100799.72;1712232;83;21864;-63
2022/09/04 00:53:27;;;;;;;26.68;13.60;;;;;;;9.06;98.02;100800.77;1712262;83;21037;-64
2022/09/04 00:56:29;;;;;;;25.45;13.48;;;;;;;8.99;98.01;100803.95;1712385;83;21044;-63
2022/09/04 00:59:05;;;;;;;26.37;13.58;;;;;;;8.93;98.66;100800.16;1712222;83;21034;-64
2022/09/04 01:01:31;;;;;;;28.77;14.20;;;;;;;8.89;99.01;100799.80;1730795;82;21045;-64
2022/09/04 01:04:18;;;;;;;26.50;13.32;;;;;;;8.83;99.27;100806.47;1741819;82;21200;-64
2022/09/04 01:07:18;;;;;;;29.18;13.95;;;;;;;8.78;99.45;100802.62;1741599;82;21038;-63
2022/09/04 01:10:21;;;;;;;25.02;13.58;;;;;;;8.74;99.42;100802.70;1734596;82;21061;-64
2022/09/04 01:13:17;;;;;;;24.65;13.62;;;;;;;8.68;100.00;100805.47;1741733;82;21057;-64
2022/09/04 01:15:58;;;;;;;27.10;14.05;;;;;;;8.58;100.00;100803.00;1742098;82;21117;-64
2022/09/04 01:18:43;;;;;;;;;;;;;;;8.51;100.00;100805.33;1744271;81;21190;-64
2022/09/04 01:21:44;;;;;;;31.45;13.45;;;;;;;8.41;100.00;100805.05;1719436;82;20201;-63
2022/09/04 01:24:39;;;;;;;28.25;13.75;;;;;;;8.32;100.00;100802.55;1742080;82;21517;-64
2022/09/04 01:27:22;;;;;;;26.87;13.28;;;;;;;8.26;100.00;100802.64;1703270;82;21045;-64
2022/09/04 01:31:50;;;;;;;27.22;14.15;;;;;;;8.22;100.00;100798.36;1814464;79;28464;-63
2022/09/04 01:35:01;;;;;;;26.85;13.68;;;;;;;8.12;100.00;100805.08;1787678;80;20993;-64
2022/09/04 01:37:58;;;;;;;26.40;13.38;;;;;;;8.07;100.00;100801.62;1787645;80;21138;-64
2022/09/04 01:40:52;;;;;;;28.23;13.55;;;;;;;8.02;100.00;100798.67;1787483;80;21040;-63
2022/09/04 01:43:20;;;;;;;24.07;12.88;;;;;;;7.99;100.00;100803.08;1787583;80;21041;-63
2022/09/04 01:46:14;;;;;;;23.90;12.53;;;;;;;7.95;100.00;100800.07;1787865;80;21049;-63
2022/09/04 01:49:14;;;;;;;22.82;11.83;;;;;;;7.91;100.00;100793.59;1787318;80;21057;-63
2022/09/04 01:52:13;;;;;;;22.82;12.33;;;;;;;7.84;100.00;100786.70;1781739;80;21200;-64
2022/09/04 01:55:14;;;;;;;25.10;12.80;;;;;;;7.84;100.00;100793.27;1773129;80;21112;-65
2022/09/04 01:57:55;;;;;;;26.85;12.82;;;;;;;7.77;100.00;100797.28;1787211;80;22052;-64
2022/09/04 02:00:22;;;;;;;26.65;13.85;;;;;;;7.72;100.00;100793.00;1783693;80;21044;-63
2022/09/04 02:03:11;;;;;;;28.77;14.18;;;;;;;7.63;100.00;100799.23;1756006;81;21021;-64
2022/09/04 02:06:03;;;;;;;22.00;12.10;;;;;;;7.59;100.00;100792.75;1756221;81;21335;-64
2022/09/04 02:09:01;;;;;;;26.95;13.20;;;;;;;7.50;100.00;100790.70;1756117;81;21101;-65
2022/09/04 02:11:29;;;;;;;24.27;12.43;;;;;;;7.48;100.00;100789.85;1755726;81;21036;-62
2022/09/04 02:14:26;;;;;;;23.22;12.18;;;;;;;7.43;100.00;100786.44;1756081;81;21044;-63
2022/09/04 02:17:11;;;;;;;28.10;13.08;;;;;;;7.41;100.00;100789.94;1755884;81;21048;-63
2022/09/04 02:20:18;;;;;;;22.80;12.82;;;;;;;7.37;100.00;100790.89;1756359;80;21652;-64
2022/09/04 02:23:20;;;;;;;26.77;13.32;;;;;;;7.32;100.00;100791.80;1756247;80;21065;-62
2022/09/04 02:25:58;;;;;;;23.77;11.45;;;;;;;7.28;100.00;100790.11;1756337;81;21006;-64
2022/09/04 02:28:57;;;;;;;24.18;12.65;;;;;;;7.24;100.00;100791.02;1755974;81;22204;-64
2022/09/04 02:31:41;;;;;;;22.95;12.85;;;;;;;7.18;100.00;100788.92;1745489;81;21057;-64
2022/09/04 02:34:48;;;;;;;26.12;12.43;;;;;;;7.18;100.00;100792.85;1743351;82;21135;-63
2022/09/04 02:37:43;;;;;;;28.67;12.73;;;;;;;7.11;100.00;100793.40;1743238;81;20999;-64
2022/09/04 02:40:30;;;;;;;27.17;12.50;;;;;;;7.06;100.00;100793.88;1743269;82;21038;-63
2022/09/04 02:43:11;;;;;;;25.17;11.90;;;;;;;7.00;100.00;100794.83;1730231;82;21050;-62
2022/09/04 02:46:13;;;;;;;25.15;11.00;;;;;;;6.96;100.00;100787.02;1743176;82;21062;-62
2022/09/04 02:49:06;;;;;;;21.75;10.70;;;;;;;6.92;100.00;100797.96;1742486;81;21126;-64
2022/09/04 02:51:49;;;;;;;19.12;10.43;;;;;;;6.87;100.00;100794.08;1742890;82;21074;-64
2022/09/04 02:54:30;;;;;;;19.15;10.35;;;;;;;6.86;100.00;100797.60;1753973;80;21046;-63
2022/09/04 02:57:26;;;;;;;;;;;;;;;6.83;100.00;100801.58;1765454;80;21121;-63
2022/09/04 03:00:18;;;;;;;21.20;10.48;;;;;;;6.79;100.00;100795.94;1773052;80;20190;-64
2022/09/04 03:03:13;;;;;;;21.55;10.08;;;;;;;6.75;100.00;100803.39;1742625;82;21124;-63
2022/09/04 03:06:06;;;;;;;20.35;10.90;;;;;;;6.71;100.00;100807.78;1742887;82;21484;-64
2022/09/04 03:08:38;;;;;;;19.60;10.50;;;;;;;6.68;100.00;100806.96;1742780;82;21038;-63
2022/09/04 03:11:17;;;;;;;20.85;10.15;;;;;;;6.65;100.00;100810.48;1742494;81;21026;-64
2022/09/04 03:14:04;;;;;;;19.90;10.50;;;;;;;6.61;100.00;100805.30;1742632;82;21625;-63
2022/09/04 03:16:48;;;;;;;22.42;10.98;;;;;;;6.61;100.00;100814.45;1742736;82;21194;-64
2022/09/04 03:19:26;;;;;;;19.07;10.32;;;;;;;6.59;100.00;100810.98;1742497;81;20991;-63
2022/09/04 03:22:04;;;;;;;20.55;10.75;;;;;;;6.55;100.00;100801.42;1742640;82;21041;-64
2022/09/04 03:25:13;;;;;;;18.77;10.43;;;;;;;6.50;100.00;100807.55;1742537;81;21030;-64
2022/09/04 03:27:40;;;;;;;22.15;8.63;;;;;;;6.49;100.00;100811.06;1742755;81;21523;-66
2022/09/04 03:30:10;;;;;;;20.17;9.45;;;;;;;6.48;100.00;100808.45;1742377;81;21212;-63
2022/09/04 03:32:47;;;;;;;;;;;;;;;6.47;100.00;100802.81;1745284;82;21029;-63
2022/09/04 03:35:28;;;;;;;17.82;10.13;;;;;;;6.46;100.00;100811.08;1742303;81;20172;-66
2022/09/04 03:38:07;;;;;;;;;;;;;;;6.46;100.00;100808.45;1745612;82;21100;-63
2022/09/04 03:40:59;;;;;;;20.50;10.05;;;;;;;6.48;100.00;100809.31;1742728;82;20185;-64
2022/09/04 03:43:49;;;;;;;18.35;9.33;;;;;;;6.49;100.00;100818.92;1705616;81;22138;-63
2022/09/04 03:46:46;;;;;;;20.52;9.55;;;;;;;6.51;100.00;100814.54;1742584;82;21031;-63
2022/09/04 03:49:41;;;;;;;17.50;9.53;;;;;;;6.55;100.00;100817.12;1742625;82;21022;-62
2022/09/04 03:52:35;;;;;;;17.55;9.10;;;;;;;6.60;100.00;100823.17;1742746;81;21094;-63
2022/09/04 03:55:32;;;;;;;18.12;9.48;;;;;;;6.63;100.00;100817.47;1763708;80;21035;-63
2022/09/04 03:58:10;;;;;;;16.87;9.08;;;;;;;6.94;100.00;100818.45;1773688;80;21082;-63
2022/09/04 04:01:00;;;;;;;16.60;9.40;;;;;;;7.65;100.00;100815.81;1773375;80;21050;-65
2022/09/04 04:04:04;;;;;;;14.68;9.30;;;;;;;8.36;100.00;100823.92;1759211;80;21053;-63
2022/09/04 04:07:07;;;;;;;16.45;8.63;;;;;;;9.15;100.00;100818.12;1773372;80;21062;-65
2022/09/04 04:10:05;;;;;;;18.32;9.08;;;;;;;9.96;100.00;100823.36;1773329;80;21221;-65
2022/09/04 04:13:12;;;;;;;14.83;8.45;;;;;;;10.71;100.00;100818.44;1773398;80;21199;-64
2022/09/04 04:15:53;;;;;;;18.30;8.98;;;;;;;11.46;98.41;100818.12;1773123;80;21000;-64
2022/09/04 04:18:48;;;;;;;26.93;8.50;;;;;;;12.17;93.86;100818.59;1773029;80;21780;-64
2022/09/04 04:21:54;;;;;;;15.95;8.50;;;;;;;12.75;90.83;100819.26;1773555;80;21045;-64
2022/09/04 04:24:37;;;;;;;21.73;8.35;;;;;;;13.31;86.93;100810.67;1771962;80;21557;-64
2022/09/04 04:27:14;;;;;;;24.65;9.03;;;;;;;13.83;83.65;100813.97;1772936;80;21518;-64
2022/09/04 04:29:55;;;;;;;20.15;8.23;;;;;;;14.27;81.08;100820.58;1773280;80;21006;-62
2022/09/04 04:32:50;;;;;;;15.38;8.20;;;;;;;14.79;78.78;100824.15;1778713;80;21636;-63
2022/09/04 04:35:47;;;;;;;16.93;8.33;;;;;;;15.24;76.21;100818.59;1779017;80;21037;-64
2022/09/04 04:38:39;;;;;;;14.63;7.80;;;;;;;15.78;73.93;100827.22;1762905;80;21042;-64
2022/09/04 04:41:30;;;;;;;13.70;7.40;;;;;;;16.32;71.52;100829.46;1779469;80;21063;-64
2022/09/04 04:44:14;;;;;;;17.32;7.03;;;;;;;16.92;69.52;100833.94;1778869;80;20999;-64
2022/09/04 04:47:06;;;;;;;16.55;7.85;;;;;;;17.54;67.31;100825.34;1762154;80;21053;-66
2022/09/04 04:49:55;;;;;;;12.98;7.12;;;;;;;18.05;64.79;100826.05;1779097;80;21081;-64
2022/09/04 04:52:53;;;;;;;15.03;7.60;;;;;;;18.56;56.98;100819.95;1778068;80;21653;-64
2022/09/04 04:55:40;;;;;;;12.45;6.50;;;;;;;19.05;52.81;100814.86;1719592;82;21050;-65
2022/09/04 04:58:33;;;;;;;11.12;6.22;;;;;;;19.57;51.25;100821.40;1731739;82;21080;-64
2022/09/04 05:01:17;;;;;;;14.03;6.45;;;;;;;20.06;49.22;100820.46;1748359;82;21067;-63
2022/09/04 05:04:33;;;;;;;8.83;5.97;;;;;;;20.55;47.80;100827.02;1748037;82;21560;-64
2022/09/04 05:07:30;;;;;;;10.60;5.70;;;;;;;20.98;46.37;100832.15;1748406;82;21060;-64
2022/09/04 05:10:23;;;;;;;16.48;5.37;;;;;;;21.46;44.72;100826.98;1748065;82;21135;-64
2022/09/04 05:13:13;;;;;;;10.95;5.37;;;;;;;21.85;43.37;100823.72;1748080;82;21540;-64
2022/09/04 05:15:46;;;;;;;13.08;5.15;;;;;;;21.83;42.27;100824.80;1747745;82;21031;-64
2022/09/04 05:18:34;;;;;;;7.90;3.90;;;;;;;21.97;41.90;100821.49;1748399;82;21101;-64
2022/09/04 05:21:22;;;;;;;10.15;4.35;;;;;;;22.26;40.68;100825.19;1748122;82;21055;-64
2022/09/04 05:24:23;;;;;;;6.87;3.98;;;;;;;22.45;39.70;100825.14;1748047;82;21162;-64
2022/09/04 05:27:16;;;;;;;7.10;3.30;;;;;;;22.74;38.20;100825.11;1746746;82;21100;-66
2022/09/04 05:30:04;;;;;;;10.25;3.50;;;;;;;22.81;36.63;100829.03;1747914;82;22078;-64
2022/09/04 05:32:48;;;;;;;6.47;3.80;;;;;;;22.89;35.76;100824.89;1734087;81;21063;-65
2022/09/04 05:35:30;;;;;;;4.50;3.35;;;;;;;23.13;35.76;100823.51;1731616;82;21045;-65
2022/09/04 05:38:23;;;;;;;6.30;3.22;;;;;;;23.53;34.94;100827.89;1730912;82;21161;-65
2022/09/04 05:40:59;;;;;;;4.75;2.67;;;;;;;23.91;34.15;100821.27;1731679;82;21089;-64
2022/09/04 05:43:57;;;;;;;12.37;2.98;;;;;;;24.12;33.63;100831.25;1731666;82;21132;-65
2022/09/04 05:46:44;;;;;;;7.72;2.92;;;;;;;24.34;33.25;100832.52;1732133;82;21041;-64
2022/09/04 05:49:40;;;;;;;4.28;2.52;;;;;;;24.81;32.70;100834.38;1731973;82;21524;-65
2022/09/04 05:52:36;;;;;;;7.12;2.65;;;;;;;25.23;31.77;100844.29;1731895;82;21850;-64
2022/09/04 05:55:35;;;;;;;4.90;2.27;;;;;;;25.40;30.78;100840.97;1732036;82;21057;-64
2022/09/04 05:58:15;;;;;;;5.30;2.20;;;;;;;25.62;29.52;100843.95;1731910;82;21109;-65
2022/09/04 06:00:59;;;;;;;3.52;2.05;;;;;;;25.62;29.52;100843.95;1732181;82;21088;-65
2022/09/04 06:03:46;;;;;;;5.60;2.65;;;;;;;25.62;30.32;100843.10;1731858;82;21025;-66
2022/09/04 06:06:26;;;;;;;6.83;2.40;;;;;;;25.70;29.92;100848.68;1732194;82;21741;-65
2022/09/04 06:09:27;;;;;;;5.75;2.80;;;;;;;25.77;29.58;100853.00;1676955;82;21006;-65
2022/09/04 06:12:06;;;;;;;7.28;2.60;;;;;;;25.88;29.72;100852.92;1732054;82;21041;-65
2022/09/04 06:14:41;;;;;;;4.22;2.40;;;;;;;25.99;28.97;100847.41;1731828;82;21041;-65
2022/09/04 06:17:41;;;;;;;3.45;2.30;;;;;;;26.10;29.42;100852.69;1731943;82;21048;-64
2022/09/04 06:20:13;;;;;;;5.45;1.80;;;;;;;26.43;28.83;100855.98;1731855;82;21093;-65
2022/09/04 06:23:08;;;;;;;4.78;2.10;;;;;;;26.72;27.84;100860.56;1731929;82;21545;-64
2022/09/04 06:25:59;;;;;;;3.52;1.60;;;;;;;26.95;27.11;100852.98;1731843;82;21053;-64
2022/09/04 06:28:47;;;;;;;5.42;1.75;;;;;;;27.04;26.84;100858.02;1732130;82;21072;-65
2022/09/04 06:31:25;;;;;;;3.90;2.08;;;;;;;27.29;27.00;100860.11;1731080;81;21140;-66
2022/09/04 06:34:16;;;;;;;3.62;1.87;;;;;;;27.66;26.68;100854.34;1731454;82;21976;-66
2022/09/04 06:37:37;;;;;;;4.03;1.85;;;;;;;27.97;25.98;100858.95;1705982;83;21133;-66
2022/09/04 06:40:19;;;;;;;4.60;1.70;;;;;;;28.27;25.05;100865.02;1731734;82;21561;-63
2022/09/04 06:42:58;;;;;;;6.33;1.80;;;;;;;28.36;24.61;100866.80;1731418;82;21088;-65
2022/09/04 06:45:58;;;;;;;2.58;1.50;;;;;;;28.28;24.07;100870.80;1729993;82;21112;-67
2022/09/04 06:48:53;;;;;;;3.37;1.45;;;;;;;28.22;24.31;100866.32;1731381;82;21149;-66
2022/09/04 06:51:29;;;;;;;4.33;1.77;;;;;;;28.36;23.72;100864.09;1731530;82;21092;-65
2022/09/04 06:54:07;;;;;;;2.02;1.32;;;;;;;28.56;23.64;100868.38;1731420;82;21108;-65
2022/09/04 06:56:55;;;;;;;2.80;1.45;;;;;;;28.74;23.17;100874.30;1731712;82;21041;-66
2022/09/04 07:00:01;;;;;;;4.40;1.65;;;;;;;28.95;23.21;100869.36;1731685;82;21065;-65
2022/09/04 07:02:51;;;;;;;3.75;1.10;;;;;;;29.10;22.57;100868.81;1731485;81;21288;-65
2022/09/04 07:05:53;;;;;;;8.30;1.55;;;;;;;28.93;21.65;100870.53;1731758;82;21036;-65
2022/09/04 07:08:45;;;;;;;4.83;1.47;;;;;;;28.58;22.07;100872.30;1731749;82;21054;-65
2022/09/04 07:11:23;;;;;;;2.50;1.45;;;;;;;28.27;22.09;100867.72;1732065;82;21080;-65
2022/09/04 07:14:18;;;;;;;4.65;1.15;;;;;;;27.95;22.63;100869.07;1731786;82;21106;-64
2022/09/04 07:17:08;;;;;;;4.03;1.30;;;;;;;27.77;22.45;100863.10;1730251;82;21259;-66
2022/09/04 07:20:07;;;;;;;3.17;1.57;;;;;;;27.60;22.27;100861.19;1731822;82;20978;-65
2022/09/04 07:23:02;;;;;;;3.45;1.40;;;;;;;27.54;23.09;100856.39;1732161;82;21054;-67
2022/09/04 07:25:37;;;;;;;4.90;1.40;;;;;;;27.40;23.05;100861.28;1731882;82;20995;-65
2022/09/04 07:28:33;;;;;;;3.22;1.12;;;;;;;27.65;23.40;100862.93;1731835;82;21036;-66
2022/09/04 07:31:19;;;;;;;5.28;1.35;;;;;;;28.07;22.66;100867.87;1731767;82;21298;-65
2022/09/04 07:34:23;;;;;;;5.50;1.65;;;;;;;28.13;22.02;100863.18;1731769;82;21045;-66
2022/09/04 07:36:58;;;;;;;3.62;1.50;;;;;;;27.66;22.66;100867.87;1731835;82;21036;-64
2022/09/04 07:40:02;;;;;;;3.12;1.47;;;;;;;27.54;23.13;100861.80;1731974;82;21584;-64
2022/09/04 07:42:41;;;;;;;3.10;1.40;;;;;;;27.86;22.89;100856.45;1663823;84;21141;-65
2022/09/04 07:45:31;;;;;;;3.30;1.57;;;;;;;28.13;22.64;100858.27;1663334;86;22203;-66
2022/09/04 07:48:15;;;;;;;5.25;1.40;;;;;;;28.54;22.33;100863.61;1697526;82;21065;-65
2022/09/04 07:51:12;;;;;;;5.75;1.37;;;;;;;28.65;21.82;100862.02;1723819;83;21544;-64
2022/09/04 07:54:19;;;;;;;4.95;1.47;;;;;;;28.37;22.10;100856.33;1724214;83;21069;-67
2022/09/04 07:57:33;;;;;;;3.45;1.20;;;;;;;28.47;22.02;100862.53;1723774;82;21564;-65
2022/09/04 08:00:17;;;;;;;2.50;1.15;;;;;;;28.77;21.55;100851.77;1623251;88;21176;-67
2022/09/04 08:02:55;;;;;;;2.37;1.15;;;;;;;28.89;20.41;100853.72;1647172;86;21127;-66
2022/09/04 08:05:35;;;;;;;4.15;1.32;;;;;;;28.64;19.97;100848.13;1677963;83;21041;-65
2022/09/04 08:08:26;;;;;;;2.00;1.07;;;;;;;28.29;20.73;100860.30;1723297;82;21034;-65
2022/09/04 08:11:30;;;;;;;3.10;1.00;;;;;;;28.39;21.38;100851.58;1724234;83;21006;-65
2022/09/04 08:14:31;;;;;;;1.90;1.30;;;;;;;28.90;21.12;100853.24;1723986;83;21282;-65
2022/09/04 08:17:54;;;;;;;8.93;5.87;;;;;;;29.37;21.02;100852.36;1710884;82;21038;-65
2022/09/04 08:21:00;;;;;;;4.28;3.20;;;;;;;29.72;19.97;100851.86;1742440;81;21030;-67
2022/09/04 08:23:54;;;;;;;8.33;2.40;;;;;;;29.72;20.05;100852.38;1742681;82;22172;-65
2022/09/04 08:27:03;;;;;;;3.95;1.45;;;;;;;29.88;19.47;100855.14;1742624;81;21033;-64
2022/09/04 08:29:57;;;;;;;9.23;6.25;;;;;;;29.35;19.56;100863.87;1742586;81;21149;-65
2022/09/04 08:32:56;;;;;;;3.47;1.30;;;;;;;29.41;19.37;100860.52;1747635;81;21600;-66
2022/09/04 08:35:47;;;;;;;4.95;2.65;;;;;;;29.31;19.70;100857.09;1755546;81;21076;-65
2022/09/04 08:38:42;;;;;;;5.45;3.08;;;;;;;28.46;20.21;100871.66;1751934;81;21046;-65
2022/09/04 08:41:20;;;;;;;6.78;1.70;;;;;;;27.03;20.98;100871.17;1755932;81;21136;-65
2022/09/04 08:44:44;;;;;;;2.08;1.30;;;;;;;26.14;22.10;100873.02;1754723;81;21259;-64
2022/09/04 08:47:41;;;;;;;5.85;1.32;;;;;;;25.66;23.04;100876.41;1773469;80;21034;-66
2022/09/04 08:50:44;;;;;;;6.20;1.50;;;;;;;25.27;23.48;100870.84;1786985;79;21064;-66
2022/09/04 08:53:34;;;;;;;1.95;1.17;;;;;;;24.65;23.79;100869.84;1787237;80;21029;-65
2022/09/04 08:56:20;;;;;;;5.83;1.40;;;;;;;24.82;24.07;100867.55;1787092;80;21096;-65
2022/09/04 08:59:11;;;;;;;8.30;1.72;;;;;;;25.24;24.21;100865.73;1787081;80;22217;-65
2022/09/04 09:02:10;;;;;;;3.25;1.40;;;;;;;25.67;24.33;100865.96;1786313;79;21038;-64
2022/09/04 09:05:01;;;;;;;3.72;1.50;;;;;;;26.54;23.21;100861.27;1786945;80;20990;-64
2022/09/04 09:07:51;;;;;;;8.80;1.92;;;;;;;26.70;22.55;100865.25;1787103;80;21517;-65
2022/09/04 09:10:39;;;;;;;4.95;2.02;;;;;;;27.04;22.43;100862.08;1786637;79;21534;-65
2022/09/04 09:13:11;;;;;;;3.98;1.40;;;;;;;27.51;22.55;100848.55;1779227;79;21463;-65
2022/09/04 09:15:51;;;;;;;3.50;1.42;;;;;;;28.07;21.14;100855.69;1786883;80;21038;-64
2022/09/04 09:18:37;;;;;;;3.92;1.37;;;;;;;28.13;20.57;100855.05;1786907;79;26554;-65
2022/09/04 09:21:26;;;;;;;2.83;1.47;;;;;;;28.00;19.63;100866.28;1787114;80;21021;-65
2022/09/04 09:24:30;;;;;;;4.45;1.42;;;;;;;27.82;19.81;100852.67;1786938;79;21244;-65
2022/09/04 09:27:36;;;;;;;3.42;1.47;;;;;;;27.49;20.42;100846.50;1787155;80;21227;-65
2022/09/04 09:30:20;;;;;;;4.42;1.30;;;;;;;27.10;20.62;100852.01;1786742;80;21014;-65
2022/09/04 09:32:55;;;;;;;4.33;1.40;;;;;;;26.58;21.18;100861.34;1781224;80;21031;-65
2022/09/04 09:35:46;;;;;;;4.12;1.40;;;;;;;26.61;22.06;100858.01;1772839;80;21018;-65
2022/09/04 09:38:25;;;;;;;4.22;1.50;;;;;;;27.04;21.61;100848.56;1772847;80;21179;-65
2022/09/04 09:41:05;;;;;;;6.50;1.57;;;;;;;27.40;21.73;100839.64;1773240;80;21236;-66
2022/09/04 09:44:02;;;;;;;3.83;1.60;;;;;;;27.65;21.25;100845.34;1773405;80;21070;-67
2022/09/04 09:46:47;;;;;;;2.98;1.82;;;;;;;27.65;21.26;100845.34;1773096;80;20987;-64
2022/09/04 09:50:00;;;;;;;3.47;1.40;;;;;;;27.39;21.21;100837.92;1772935;80;21117;-64
2022/09/04 09:52:42;;;;;;;5.62;1.80;;;;;;;26.98;21.38;100853.53;1773204;80;21050;-64
2022/09/04 09:55:35;;;;;;;3.62;1.50;;;;;;;26.53;22.17;100846.04;1773183;80;21151;-66
2022/09/04 09:58:35;;;;;;;4.37;1.95;;;;;;;26.32;22.41;100851.59;1759294;80;21007;-66
2022/09/04 10:01:27;;;;;;;4.75;2.02;;;;;;;25.98;23.28;100845.72;1759504;80;21515;-65
2022/09/04 10:04:27;;;;;;;4.03;2.55;;;;;;;25.41;23.58;100847.22;1773287;80;21070;-65
2022/09/04 10:07:20;;;;;;;2.50;1.45;;;;;;;25.46;24.65;100849.00;1772872;80;21057;-65
2022/09/04 10:10:23;;;;;;;2.90;1.20;;;;;;;25.90;23.07;100845.55;1773594;79;22097;-65
2022/09/04 10:13:28;;;;;;;5.30;1.47;;;;;;;26.04;21.66;100849.19;1773330;80;21062;-66
2022/09/04 10:16:25;;;;;;;3.35;1.42;;;;;;;25.89;22.60;100842.00;1773092;80;21105;-64
2022/09/04 10:19:29;;;;;;;2.08;1.42;;;;;;;26.40;23.01;100840.06;1773413;80;21086;-64
2022/09/04 10:22:33;;;;;;;6.72;1.52;;;;;;;27.13;20.75;100824.70;1773461;80;21045;-65
2022/09/04 10:25:29;;;;;;;9.45;1.57;;;;;;;27.43;20.97;100826.83;1773259;80;21845;-66
2022/09/04 10:28:34;;;;;;;6.92;1.90;;;;;;;27.35;20.70;100820.28;1773242;80;21027;-65
2022/09/04 10:31:34;;;;;;;4.90;1.55;;;;;;;26.92;21.29;100832.52;1773316;80;20987;-65
2022/09/04 10:34:15;;;;;;;2.52;1.40;;;;;;;26.35;21.04;100839.65;1772976;79;21534;-65
2022/09/04 10:36:56;;;;;;;2.90;1.40;;;;;;;25.26;22.07;100852.97;1766992;80;20975;-65
2022/09/04 10:42:37;;;;;;;7.70;1.50;;;;;;;23.76;23.88;100858.83;1754573;80;21038;-65
2022/09/04 10:45:33;;;;;;;8.80;1.30;;;;;;;23.16;24.48;100856.84;1770622;80;21074;-64
2022/09/04 10:48:15;;;;;;;3.62;1.20;;;;;;;22.82;25.18;100857.61;1773484;79;21074;-65
2022/09/04 10:51:20;;;;;;;3.30;1.25;;;;;;;22.98;25.29;100855.94;1762157;80;21002;-65
2022/09/04 10:54:15;;;;;;;3.00;1.30;;;;;;;23.45;24.91;100846.48;1764490;80;21791;-65
2022/09/04 10:57:17;;;;;;;6.20;1.60;;;;;;;24.12;23.67;100842.02;1731906;81;21072;-66
2022/09/04 11:00:12;;;;;;;2.85;1.17;;;;;;;24.64;23.57;100843.03;1731643;82;21076;-65
2022/09/04 11:03:02;;;;;;;6.37;1.32;;;;;;;25.44;22.64;100841.54;1732089;82;21049;-65
2022/09/04 11:05:54;;;;;;;2.47;1.30;;;;;;;25.69;22.14;100839.70;1731442;82;21102;-65
2022/09/04 11:08:51;;;;;;;3.10;1.25;;;;;;;25.60;21.68;100844.58;1731243;82;21163;-65
2022/09/04 11:11:40;;;;;;;4.10;1.20;;;;;;;24.88;21.99;100852.22;1731509;82;21072;-64
2022/09/04 11:14:36;;;;;;;1.70;1.12;;;;;;;24.35;23.11;100846.82;1731903;82;21081;-65
2022/09/04 11:17:24;;;;;;;4.80;0.95;;;;;;;24.00;22.79;100847.42;1731956;82;21077;-65
2022/09/04 11:20:19;;;;;;;2.95;1.90;;;;;;;23.75;22.66;100845.88;1731783;82;21763;-65
2022/09/04 11:23:04;;;;;;;4.00;1.50;;;;;;;23.60;23.44;100843.04;1731896;82;21133;-66
2022/09/04 11:26:11;;;;;;;3.90;2.30;;;;;;;23.86;24.26;100834.25;1731889;82;21014;-65
2022/09/04 11:29:09;;;;;;;2.50;1.10;;;;;;;24.33;22.98;100824.06;1731808;81;21128;-65
2022/09/04 11:31:51;;;;;;;4.00;1.02;;;;;;;24.69;22.14;100830.05;1731857;82;21628;-66
2022/09/04 11:35:01;;;;;;;4.85;2.85;;;;;;;24.90;22.20;100824.16;1731693;81;21569;-65
2022/09/04 11:38:05;;;;;;;5.00;1.35;;;;;;;25.31;22.75;100806.74;1731989;82;21245;-65
2022/09/04 11:40:54;;;;;;;3.83;1.35;;;;;;;25.85;21.16;100812.71;1731577;82;21084;-64
2022/09/04 11:43:55;;;;;;;3.67;1.27;;;;;;;25.38;21.38;100809.75;1731823;82;21045;-65
2022/09/04 11:46:59;;;;;;;2.17;1.35;;;;;;;24.71;22.15;100815.96;1732203;81;21141;-67
2022/09/04 11:49:38;;;;;;;3.22;1.30;;;;;;;24.18;23.54;100815.91;1731758;82;21057;-66
2022/09/04 11:52:34;;;;;;;12.20;4.80;;;;;;;23.77;23.43;100819.72;1705440;82;21379;-64
2022/09/04 11:55:09;;;;;;;4.17;1.65;;;;;;;23.34;24.40;100816.91;1759786;80;21022;-65
2022/09/04 11:57:58;;;;;;;5.50;1.55;;;;;;;23.03;24.89;100819.36;1773222;80;21042;-65
2022/09/04 12:00:25;;;;;;;14.15;6.65;;;;;;;22.83;25.17;100824.41;1772752;80;21046;-64
2022/09/04 12:03:09;;;;;;;28.95;17.40;;;;;;;22.63;25.72;100822.39;1762036;80;21089;-66
2022/09/04 12:06:14;;;;;;;24.00;15.23;;;;;;;22.65;25.87;100821.80;1772750;80;21355;-65
2022/09/04 12:09:19;;;;;;;5.28;1.37;;;;;;;22.96;25.46;100824.31;1772924;80;21504;-66
2022/09/04 12:12:21;;;;;;;7.30;1.20;;;;;;;23.28;23.82;100820.08;1772923;80;21023;-65
2022/09/04 12:15:09;;;;;;;4.75;1.00;;;;;;;23.28;24.12;100816.05;1760921;80;21065;-65
2022/09/04 12:17:49;;;;;;;4.35;1.20;;;;;;;23.31;23.33;100814.48;1773082;80;21046;-66
2022/09/04 12:20:49;;;;;;;9.87;6.47;;;;;;;23.40;23.39;100809.22;1773354;80;21142;-65
2022/09/04 12:24:11;;;;;;;7.05;1.52;;;;;;;23.59;23.67;100807.23;1773418;80;21740;-65
2022/09/04 12:27:01;;;;;;;3.80;1.40;;;;;;;23.85;24.09;100796.22;1773337;80;21054;-65
2022/09/04 12:30:05;;;;;;;3.80;2.00;;;;;;;23.91;23.77;100794.38;1773575;80;21077;-65
2022/09/04 12:33:13;;;;;;;5.08;2.22;;;;;;;23.96;24.00;100797.53;1773214;80;21207;-66
2022/09/04 12:35:43;;;;;;;3.50;1.40;;;;;;;23.92;25.20;100798.77;1772498;80;21458;-64
2022/09/04 12:38:23;;;;;;;3.33;1.40;;;;;;;23.83;23.92;100800.40;1773300;80;21109;-65
2022/09/04 12:41:21;;;;;;;17.97;10.10;;;;;;;23.58;24.05;100802.86;1773459;80;20999;-65
2022/09/04 12:44:18;;;;;;;9.83;5.97;;;;;;;23.22;24.64;100799.45;1772910;80;20991;-65
2022/09/04 12:47:12;;;;;;;11.15;6.45;;;;;;;23.04;24.94;100803.59;1773266;80;21033;-64
2022/09/04 12:50:15;;;;;;;12.03;8.43;;;;;;;23.00;25.79;100795.40;1703604;84;21237;-67
2022/09/04 12:53:09;;;;;;;15.45;9.65;;;;;;;22.87;25.42;100804.02;1703599;84;21140;-65
2022/09/04 12:55:57;;;;;;;12.47;6.50;;;;;;;22.76;25.82;100805.72;1726818;82;21776;-65
2022/09/04 12:58:51;;;;;;;6.87;2.75;;;;;;;22.65;25.39;100800.81;1736499;82;21048;-67
2022/09/04 13:01:55;;;;;;;3.45;1.42;;;;;;;22.56;26.08;100794.31;1735627;82;21096;-65
2022/09/04 13:04:54;;;;;;;1.82;1.20;;;;;;;22.63;26.26;100798.23;1736243;82;21249;-65
2022/09/04 13:07:46;;;;;;;8.53;5.20;;;;;;;22.88;25.69;100790.97;1736635;82;21037;-65
2022/09/04 13:10:24;;;;;;;10.72;6.83;;;;;;;23.11;25.62;100788.70;1736585;82;21068;-65
2022/09/04 13:13:05;;;;;;;13.62;6.45;;;;;;;23.35;24.92;100798.45;1736307;82;21088;-66
2022/09/04 13:15:59;;;;;;;6.70;2.17;;;;;;;23.43;24.71;100791.49;1736425;82;21050;-66